createdAt,value
2019-01-23T00:00:35.138Z,-0.43
2019-01-23T00:01:35.407Z,-0.43
2019-01-23T00:02:35.424Z,-0.46
2019-01-23T00:03:35.183Z,-0.49
2019-01-23T00:04:35.191Z,-0.46
2019-01-23T00:05:35.465Z,-0.44
2019-01-23T00:06:34.961Z,-0.49
2019-01-23T00:07:35.515Z,-0.49
2019-01-23T00:08:35.258Z,-0.47
2019-01-23T00:09:35.258Z,-0.43
2019-01-23T00:10:35.534Z,-0.52
2019-01-23T00:11:35.283Z,-0.49
2019-01-23T00:12:35.299Z,-0.44
2019-01-23T00:13:35.062Z,-0.5
2019-01-23T00:14:35.336Z,-0.43
2019-01-23T00:15:35.362Z,-0.5
2019-01-23T00:16:35.416Z,-0.43
2019-01-23T00:17:35.106Z,-0.47
2019-01-23T00:18:35.404Z,-0.46
2019-01-23T00:19:35.132Z,-0.5
2019-01-23T00:20:35.150Z,-0.46
2019-01-23T00:21:35.164Z,-0.46
2019-01-23T00:22:35.438Z,-0.47
2019-01-23T00:23:35.192Z,-0.47
2019-01-23T00:24:35.207Z,-0.46
2019-01-23T00:25:35.217Z,-0.5
2019-01-23T00:26:35.224Z,-0.5
2019-01-23T00:27:35.507Z,-0.46
2019-01-23T00:28:35.526Z,-0.54
2019-01-23T00:29:35.528Z,-0.46
2019-01-23T00:30:35.535Z,-0.53
2019-01-23T00:31:35.555Z,-0.5
2019-01-23T00:32:35.315Z,-0.43
2019-01-23T00:33:35.328Z,-0.43
2019-01-23T00:34:35.334Z,-0.49
2019-01-23T00:35:35.617Z,-0.43
2019-01-23T00:36:35.630Z,-0.49
2019-01-23T00:37:35.650Z,-0.49
2019-01-23T00:38:35.400Z,-0.41
2019-01-23T00:39:35.411Z,-0.5
2019-01-23T00:40:35.422Z,-0.5
2019-01-23T00:41:35.692Z,-0.52
2019-01-23T00:42:35.706Z,-0.44
2019-01-23T00:43:35.716Z,-0.47
2019-01-23T00:44:35.986Z,-0.43
2019-01-23T00:45:36.000Z,-0.49
2019-01-23T00:46:36.025Z,-0.44
2019-01-23T00:47:36.028Z,-0.41
2019-01-23T00:48:35.789Z,-0.47
2019-01-23T00:49:35.794Z,-0.46
2019-01-23T00:50:35.825Z,-0.47
2019-01-23T00:51:35.820Z,-0.46
2019-01-23T00:52:35.843Z,-0.5
2019-01-23T00:53:35.858Z,-0.5
2019-01-23T00:54:36.119Z,-0.49
2019-01-23T00:55:36.131Z,-0.49
2019-01-23T00:56:36.051Z,-0.53
2019-01-23T00:57:35.652Z,-0.5
2019-01-23T00:58:36.188Z,-0.49
2019-01-23T00:59:35.671Z,-0.43
2019-01-23T01:00:35.683Z,-0.49
2019-01-23T01:01:36.224Z,-0.53
2019-01-23T01:02:35.974Z,-0.47
2019-01-23T01:03:35.984Z,-0.47
2019-01-23T01:04:35.738Z,-0.46
2019-01-23T01:05:36.011Z,-0.49
2019-01-23T01:06:35.767Z,-0.49
2019-01-23T01:07:35.779Z,-0.49
2019-01-23T01:08:36.056Z,-0.5
2019-01-23T01:09:36.079Z,-0.49
2019-01-23T01:10:35.832Z,-0.46
2019-01-23T01:11:36.357Z,-0.49
2019-01-23T01:12:36.378Z,-0.49
2019-01-23T01:13:36.130Z,-0.43
2019-01-23T01:14:35.875Z,-0.52
2019-01-23T01:15:35.889Z,-0.46
2019-01-23T01:16:36.160Z,-0.41
2019-01-23T01:17:35.921Z,-0.46
2019-01-23T01:18:36.183Z,-0.46
2019-01-23T01:19:36.197Z,-0.49
2019-01-23T01:20:36.227Z,-0.47
2019-01-23T01:21:36.231Z,-0.36
2019-01-23T01:22:35.984Z,-0.44
2019-01-23T01:23:35.998Z,-0.44
2019-01-23T01:24:36.260Z,-0.44
2019-01-23T01:25:36.533Z,-0.44
2019-01-23T01:26:36.560Z,-0.46
2019-01-23T01:27:36.568Z,-0.47
2019-01-23T01:28:36.063Z,-0.39
2019-01-23T01:29:36.121Z,-0.49
2019-01-23T01:30:36.096Z,-0.53
2019-01-23T01:31:36.366Z,-0.47
2019-01-23T01:32:36.371Z,-0.47
2019-01-23T01:33:38.379Z,-0.47
2019-01-23T01:34:36.664Z,-0.46
2019-01-23T01:35:36.412Z,-0.49
2019-01-23T01:36:36.576Z,-0.44
2019-01-23T01:37:36.447Z,-0.52
2019-01-23T01:38:36.461Z,-0.49
2019-01-23T01:39:36.213Z,-0.47
2019-01-23T01:40:36.234Z,-0.47
2019-01-23T01:41:36.495Z,-0.41
2019-01-23T01:42:36.500Z,-0.5
2019-01-23T01:43:36.260Z,-0.46
2019-01-23T01:44:36.533Z,-0.41
2019-01-23T01:45:36.301Z,-0.36
2019-01-23T01:46:36.307Z,-0.52
2019-01-23T01:47:36.314Z,-0.47
2019-01-23T01:48:36.856Z,-0.43
2019-01-23T01:49:36.606Z,-0.5
2019-01-23T01:50:36.878Z,-0.53
2019-01-23T01:51:36.627Z,-0.5
2019-01-23T01:52:36.634Z,-0.5
2019-01-23T01:53:36.392Z,-0.5
2019-01-23T01:54:36.414Z,-0.49
2019-01-23T01:55:36.674Z,-0.44
2019-01-23T01:56:36.690Z,-0.43
2019-01-23T01:57:36.706Z,-0.5
2019-01-23T01:58:36.724Z,-0.46
2019-01-23T01:59:36.473Z,-0.49
2019-01-23T02:00:36.483Z,-0.54
2019-01-23T02:01:36.769Z,-0.49
2019-01-23T02:02:37.028Z,-0.41
2019-01-23T02:03:36.844Z,-0.44
2019-01-23T02:04:36.805Z,-0.47
2019-01-23T02:05:36.809Z,-0.5
2019-01-23T02:06:36.573Z,-0.49
2019-01-23T02:07:36.584Z,-0.53
2019-01-23T02:08:36.869Z,-0.46
2019-01-23T02:09:40.479Z,-0.56
2019-01-23T02:10:36.869Z,-0.46
2019-01-23T02:11:36.638Z,-0.56
2019-01-23T02:12:36.639Z,-0.44
2019-01-23T02:13:36.935Z,-0.46
2019-01-23T02:14:36.668Z,-0.56
2019-01-23T02:15:36.688Z,-0.47
2019-01-23T02:16:37.224Z,-0.47
2019-01-23T02:17:36.969Z,-0.53
2019-01-23T02:18:36.982Z,-0.53
2019-01-23T02:19:37.269Z,-0.46
2019-01-23T02:20:37.015Z,-0.46
2019-01-23T02:21:36.767Z,-0.57
2019-01-23T02:22:37.042Z,-0.49
2019-01-23T02:23:36.789Z,-0.49
2019-01-23T02:24:37.069Z,-0.47
2019-01-23T02:25:37.083Z,-0.5
2019-01-23T02:26:37.108Z,-0.47
2019-01-23T02:27:37.102Z,-0.54
2019-01-23T02:28:37.125Z,-0.47
2019-01-23T02:29:36.870Z,-0.5
2019-01-23T02:30:37.146Z,-0.53
2019-01-23T02:31:37.436Z,-0.47
2019-01-23T02:32:37.175Z,-0.44
2019-01-23T02:33:37.463Z,-0.46
2019-01-23T02:34:37.214Z,-0.53
2019-01-23T02:35:37.226Z,-0.56
2019-01-23T02:36:36.984Z,-0.54
2019-01-23T02:37:37.242Z,-0.54
2019-01-23T02:38:37.507Z,-0.57
2019-01-23T02:39:37.273Z,-0.53
2019-01-23T02:40:37.283Z,-0.5
2019-01-23T02:41:37.286Z,-0.54
2019-01-23T02:42:37.566Z,-0.49
2019-01-23T02:43:37.060Z,-0.54
2019-01-23T02:44:37.330Z,-0.49
2019-01-23T02:45:37.089Z,-0.49
2019-01-23T02:46:37.361Z,-0.53
2019-01-23T02:47:37.419Z,-0.54
2019-01-23T02:48:37.139Z,-0.5
2019-01-23T02:49:37.397Z,-0.53
2019-01-23T02:50:37.404Z,-0.53
2019-01-23T02:51:37.461Z,-0.44
2019-01-23T02:52:37.434Z,-0.46
2019-01-23T02:53:37.711Z,-0.53
2019-01-23T02:54:37.459Z,-0.54
2019-01-23T02:55:37.762Z,-0.49
2019-01-23T02:56:37.502Z,-0.53
2019-01-23T02:57:37.802Z,-0.43
2019-01-23T02:58:37.259Z,-0.49
2019-01-23T02:59:37.290Z,-0.43
2019-01-23T03:00:37.558Z,-0.53
2019-01-23T03:01:37.821Z,-0.49
2019-01-23T03:02:37.823Z,-0.56
2019-01-23T03:03:37.606Z,-0.52
2019-01-23T03:04:37.597Z,-0.46
2019-01-23T03:05:37.621Z,-0.56
2019-01-23T03:06:37.620Z,-0.49
2019-01-23T03:07:37.892Z,-0.53
2019-01-23T03:08:37.919Z,-0.53
2019-01-23T03:09:37.671Z,-0.54
2019-01-23T03:10:37.684Z,-0.56
2019-01-23T03:11:37.687Z,-0.5
2019-01-23T03:12:37.456Z,-0.5
2019-01-23T03:13:37.458Z,-0.54
2019-01-23T03:14:37.737Z,-0.5
2019-01-23T03:15:37.740Z,-0.53
2019-01-23T03:16:38.021Z,-0.52
2019-01-23T03:17:37.522Z,-0.49
2019-01-23T03:18:37.524Z,-0.54
2019-01-23T03:19:37.550Z,-0.54
2019-01-23T03:20:37.551Z,-0.5
2019-01-23T03:21:37.823Z,-0.54
2019-01-23T03:22:38.110Z,-0.53
2019-01-23T03:23:37.865Z,-0.49
2019-01-23T03:24:37.616Z,-0.53
2019-01-23T03:25:37.644Z,-0.54
2019-01-23T03:26:37.631Z,-0.5
2019-01-23T03:27:37.650Z,-0.52
2019-01-23T03:28:37.935Z,-0.54
2019-01-23T03:29:37.923Z,-0.56
2019-01-23T03:30:37.729Z,-0.52
2019-01-23T03:31:37.978Z,-0.61
2019-01-23T03:32:37.994Z,-0.57
2019-01-23T03:33:38.267Z,-0.52
2019-01-23T03:34:38.008Z,-0.57
2019-01-23T03:35:38.284Z,-0.64
2019-01-23T03:36:38.280Z,-0.59
2019-01-23T03:37:38.302Z,-0.62
2019-01-23T03:38:38.045Z,-0.59
2019-01-23T03:39:38.079Z,-0.54
2019-01-23T03:40:38.072Z,-0.67
2019-01-23T03:41:38.105Z,-0.53
2019-01-23T03:42:38.366Z,-0.56
2019-01-23T03:43:37.852Z,-0.59
2019-01-23T03:44:37.864Z,-0.56
2019-01-23T03:45:38.142Z,-0.56
2019-01-23T03:46:38.159Z,-0.65
2019-01-23T03:47:38.176Z,-0.64
2019-01-23T03:48:37.935Z,-0.59
2019-01-23T03:49:38.468Z,-0.64
2019-01-23T03:50:38.217Z,-0.62
2019-01-23T03:51:38.019Z,-0.62
2019-01-23T03:52:37.983Z,-0.53
2019-01-23T03:53:38.262Z,-0.57
2019-01-23T03:54:38.513Z,-0.64
2019-01-23T03:55:38.530Z,-0.61
2019-01-23T03:56:38.558Z,-0.62
2019-01-23T03:57:38.301Z,-0.53
2019-01-23T03:58:38.049Z,-0.54
2019-01-23T03:59:38.584Z,-0.57
2019-01-23T04:00:38.345Z,-0.49
2019-01-23T04:01:38.630Z,-0.56
2019-01-23T04:02:38.643Z,-0.65
2019-01-23T04:03:38.394Z,-0.65
2019-01-23T04:04:38.153Z,-0.5
2019-01-23T04:05:38.695Z,-0.64
2019-01-23T04:06:38.421Z,-0.64
2019-01-23T04:07:38.722Z,-0.62
2019-01-23T04:08:38.708Z,-0.52
2019-01-23T04:09:38.207Z,-0.57
2019-01-23T04:10:38.501Z,-0.54
2019-01-23T04:11:38.227Z,-0.52
2019-01-23T04:12:38.250Z,-0.64
2019-01-23T04:13:38.766Z,-0.59
2019-01-23T04:14:38.540Z,-0.61
2019-01-23T04:15:38.806Z,-0.62
2019-01-23T04:16:38.561Z,-0.54
2019-01-23T04:17:38.846Z,-0.61
2019-01-23T04:18:38.319Z,-0.62
2019-01-23T04:19:38.857Z,-0.62
2019-01-23T04:20:38.606Z,-0.61
2019-01-23T04:21:38.366Z,-0.57
2019-01-23T04:22:38.924Z,-0.53
2019-01-23T04:23:38.391Z,-0.64
2019-01-23T04:24:38.412Z,-0.62
2019-01-23T04:25:38.934Z,-0.57
2019-01-23T04:26:38.694Z,-0.62
2019-01-23T04:27:38.693Z,-0.57
2019-01-23T04:28:38.982Z,-0.59
2019-01-23T04:29:44.334Z,-0.52
2019-01-23T04:30:38.748Z,-0.57
2019-01-23T04:31:38.758Z,-0.62
2019-01-23T04:32:38.515Z,-0.61
2019-01-23T04:33:38.532Z,-0.57
2019-01-23T04:34:38.792Z,-0.54
2019-01-23T04:35:38.808Z,-0.56
2019-01-23T04:36:38.834Z,-0.59
2019-01-23T04:37:38.843Z,-0.61
2019-01-23T04:38:38.853Z,-0.56
2019-01-23T04:39:39.146Z,-0.64
2019-01-23T04:40:38.877Z,-0.65
2019-01-23T04:41:39.162Z,-0.61
2019-01-23T04:42:38.911Z,-0.67
2019-01-23T04:43:38.651Z,-0.62
2019-01-23T04:44:38.928Z,-0.61
2019-01-23T04:45:38.689Z,-0.62
2019-01-23T04:46:38.968Z,-0.67
2019-01-23T04:47:38.984Z,-0.59
2019-01-23T04:48:38.990Z,-0.67
2019-01-23T04:49:39.521Z,-0.67
2019-01-23T04:50:39.005Z,-0.54
2019-01-23T04:51:38.772Z,-0.57
2019-01-23T04:52:39.043Z,-0.64
2019-01-23T04:53:39.066Z,-0.62
2019-01-23T04:54:38.801Z,-0.65
2019-01-23T04:55:38.819Z,-0.67
2019-01-23T04:56:39.113Z,-0.67
2019-01-23T04:57:39.109Z,-0.68
2019-01-23T04:58:39.369Z,-0.65
2019-01-23T04:59:39.126Z,-0.67
2019-01-23T05:00:39.416Z,-0.61
2019-01-23T05:01:39.152Z,-0.64
2019-01-23T05:02:38.910Z,-0.61
2019-01-23T05:03:38.925Z,-0.62
2019-01-23T05:04:39.459Z,-0.65
2019-01-23T05:05:39.208Z,-0.7
2019-01-23T05:06:39.225Z,-0.67
2019-01-23T05:07:39.496Z,-0.71
2019-01-23T05:08:39.258Z,-0.7
2019-01-23T05:09:39.018Z,-0.62
2019-01-23T05:10:39.286Z,-0.71
2019-01-23T05:11:39.585Z,-0.74
2019-01-23T05:12:39.042Z,-0.65
2019-01-23T05:13:39.315Z,-0.65
2019-01-23T05:14:41.115Z,-0.65
2019-01-23T05:15:39.620Z,-0.65
2019-01-23T05:16:39.368Z,-0.67
2019-01-23T05:17:39.118Z,-0.7
2019-01-23T05:18:39.399Z,-0.65
2019-01-23T05:19:39.666Z,-0.67
2019-01-23T05:20:39.677Z,-0.68
2019-01-23T05:21:39.422Z,-0.62
2019-01-23T05:22:39.171Z,-0.7
2019-01-23T05:23:39.202Z,-0.65
2019-01-23T05:24:39.208Z,-0.68
2019-01-23T05:25:39.219Z,-0.72
2019-01-23T05:26:39.483Z,-0.72
2019-01-23T05:27:39.785Z,-0.68
2019-01-23T05:28:39.525Z,-0.67
2019-01-23T05:29:39.534Z,-0.65
2019-01-23T05:30:39.279Z,-0.64
2019-01-23T05:31:39.301Z,-0.68
2019-01-23T05:32:39.312Z,-0.72
2019-01-23T05:33:39.342Z,-0.78
2019-01-23T05:34:39.606Z,-0.67
2019-01-23T05:35:39.613Z,-0.65
2019-01-23T05:36:39.623Z,-0.67
2019-01-23T05:37:39.378Z,-0.77
2019-01-23T05:38:39.381Z,-0.75
2019-01-23T05:39:39.656Z,-0.77
2019-01-23T05:40:39.667Z,-0.77
2019-01-23T05:41:39.434Z,-0.77
2019-01-23T05:42:39.705Z,-0.75
2019-01-23T05:43:39.992Z,-0.75
2019-01-23T05:44:39.465Z,-0.77
2019-01-23T05:45:39.752Z,-0.8
2019-01-23T05:46:39.752Z,-0.75
2019-01-23T05:47:39.772Z,-0.71
2019-01-23T05:48:39.790Z,-0.77
2019-01-23T05:49:39.546Z,-0.75
2019-01-23T05:50:39.547Z,-0.82
2019-01-23T05:51:39.560Z,-0.75
2019-01-23T05:52:40.105Z,-0.82
2019-01-23T05:53:40.125Z,-0.78
2019-01-23T05:54:40.121Z,-0.74
2019-01-23T05:55:39.613Z,-0.74
2019-01-23T05:56:39.643Z,-0.8
2019-01-23T05:57:39.902Z,-0.75
2019-01-23T05:58:40.171Z,-0.71
2019-01-23T05:59:39.685Z,-0.77
2019-01-23T06:00:40.208Z,-0.77
2019-01-23T06:01:39.966Z,-0.74
2019-01-23T06:02:39.709Z,-0.77
2019-01-23T06:03:39.981Z,-0.72
2019-01-23T06:04:39.745Z,-0.74
2019-01-23T06:05:40.005Z,-0.8
2019-01-23T06:06:39.755Z,-0.77
2019-01-23T06:07:40.299Z,-0.83
2019-01-23T06:08:40.299Z,-0.82
2019-01-23T06:09:39.804Z,-0.8
2019-01-23T06:10:40.066Z,-0.8
2019-01-23T06:11:39.834Z,-0.8
2019-01-23T06:12:40.110Z,-0.83
2019-01-23T06:13:40.126Z,-0.8
2019-01-23T06:14:39.864Z,-0.89
2019-01-23T06:15:40.139Z,-0.89
2019-01-23T06:16:40.165Z,-0.75
2019-01-23T06:17:40.163Z,-0.78
2019-01-23T06:18:39.914Z,-0.75
2019-01-23T06:19:40.186Z,-0.78
2019-01-23T06:20:40.481Z,-0.83
2019-01-23T06:21:40.209Z,-0.78
2019-01-23T06:22:40.237Z,-0.78
2019-01-23T06:23:40.248Z,-0.8
2019-01-23T06:24:40.264Z,-0.82
2019-01-23T06:25:40.279Z,-0.83
2019-01-23T06:26:40.540Z,-0.86
2019-01-23T06:27:40.323Z,-0.82
2019-01-23T06:28:40.306Z,-0.83
2019-01-23T06:29:40.328Z,-0.83
2019-01-23T06:30:40.086Z,-0.83
2019-01-23T06:31:41.969Z,-0.8
2019-01-23T06:32:40.112Z,-0.78
2019-01-23T06:33:40.385Z,-0.82
2019-01-23T06:34:40.139Z,-0.85
2019-01-23T06:35:40.403Z,-0.8
2019-01-23T06:36:40.428Z,-0.8
2019-01-23T06:37:40.684Z,-0.83
2019-01-23T06:38:40.179Z,-0.86
2019-01-23T06:39:40.198Z,-0.83
2019-01-23T06:40:40.463Z,-0.83
2019-01-23T06:41:40.234Z,-0.91
2019-01-23T06:42:40.497Z,-0.83
2019-01-23T06:43:40.248Z,-0.93
2019-01-23T06:44:40.267Z,-0.86
2019-01-23T06:45:40.542Z,-0.85
2019-01-23T06:46:40.308Z,-0.91
2019-01-23T06:47:40.556Z,-0.86
2019-01-23T06:48:40.581Z,-0.85
2019-01-23T06:49:40.337Z,-0.9
2019-01-23T06:50:40.599Z,-0.9
2019-01-23T06:51:40.627Z,-0.86
2019-01-23T06:52:40.899Z,-0.86
2019-01-23T06:53:40.578Z,-0.89
2019-01-23T06:54:40.907Z,-0.85
2019-01-23T06:55:40.409Z,-0.9
2019-01-23T06:56:40.940Z,-0.91
2019-01-23T06:57:40.708Z,-0.9
2019-01-23T06:58:40.702Z,-0.83
2019-01-23T06:59:40.717Z,-0.96
2019-01-23T07:00:40.478Z,-0.86
2019-01-23T07:01:40.774Z,-0.91
2019-01-23T07:02:40.754Z,-0.89
2019-01-23T07:03:41.028Z,-0.94
2019-01-23T07:04:41.054Z,-0.86
2019-01-23T07:05:40.538Z,-0.91
2019-01-23T07:06:41.086Z,-0.94
2019-01-23T07:07:40.570Z,-0.85
2019-01-23T07:08:41.093Z,-0.83
2019-01-23T07:09:40.844Z,-0.93
2019-01-23T07:10:40.871Z,-1.01
2019-01-23T07:11:40.621Z,-0.94
2019-01-23T07:12:40.636Z,-1.01
2019-01-23T07:13:40.901Z,-1.02
2019-01-23T07:14:40.675Z,-0.99
2019-01-23T07:15:40.928Z,-1.02
2019-01-23T07:16:40.691Z,-0.96
2019-01-23T07:17:40.982Z,-0.97
2019-01-23T07:18:40.969Z,-0.99
2019-01-23T07:19:40.989Z,-1.01
2019-01-23T07:20:41.006Z,-0.96
2019-01-23T07:21:41.282Z,-0.94
2019-01-23T07:22:41.040Z,-0.99
2019-01-23T07:23:41.031Z,-0.97
2019-01-23T07:24:41.047Z,-0.97
2019-01-23T07:25:41.080Z,-1.01
2019-01-23T07:26:40.815Z,-1.02
2019-01-23T07:27:41.099Z,-1.01
2019-01-23T07:28:41.112Z,-0.99
2019-01-23T07:29:41.384Z,-0.99
2019-01-23T07:30:41.132Z,-0.96
2019-01-23T07:31:41.148Z,-1.05
2019-01-23T07:32:41.449Z,-0.96
2019-01-23T07:33:41.171Z,-1.01
2019-01-23T07:34:41.451Z,-0.93
2019-01-23T07:35:41.229Z,-0.99
2019-01-23T07:36:41.506Z,-1.02
2019-01-23T07:37:41.490Z,-0.99
2019-01-23T07:38:41.508Z,-1.01
2019-01-23T07:39:41.274Z,-0.99
2019-01-23T07:40:41.529Z,-0.99
2019-01-23T07:41:41.280Z,-0.96
2019-01-23T07:42:41.026Z,-1.04
2019-01-23T07:43:41.307Z,-1.01
2019-01-23T07:44:41.056Z,-1.01
2019-01-23T07:45:41.323Z,-0.99
2019-01-23T07:46:41.080Z,-0.99
2019-01-23T07:47:41.349Z,-1.02
2019-01-23T07:48:41.107Z,-0.94
2019-01-23T07:49:41.372Z,-1.02
2019-01-23T07:50:41.400Z,-0.97
2019-01-23T07:51:41.146Z,-0.91
2019-01-23T07:52:41.411Z,-1.02
2019-01-23T07:53:41.180Z,-0.97
2019-01-23T07:54:41.716Z,-0.97
2019-01-23T07:55:41.208Z,-1.01
2019-01-23T07:56:41.737Z,-0.97
2019-01-23T07:57:41.485Z,-1.05
2019-01-23T07:58:41.241Z,-0.97
2019-01-23T07:59:41.509Z,-1.01
2019-01-23T08:00:41.806Z,-0.91
2019-01-23T08:01:41.553Z,-0.97
2019-01-23T08:02:41.551Z,-0.96
2019-01-23T08:03:41.330Z,-0.94
2019-01-23T08:04:41.581Z,-0.86
2019-01-23T08:05:41.336Z,-0.89
2019-01-23T08:06:41.608Z,-0.96
2019-01-23T08:07:41.352Z,-1.02
2019-01-23T08:08:41.370Z,-0.93
2019-01-23T08:09:42.731Z,-0.94
2019-01-23T08:10:41.670Z,-0.89
2019-01-23T08:11:41.413Z,-0.85
2019-01-23T08:12:41.433Z,-0.96
2019-01-23T08:13:41.722Z,-0.82
2019-01-23T08:14:41.980Z,-1.01
2019-01-23T08:15:41.482Z,-0.85
2019-01-23T08:16:41.736Z,-0.85
2019-01-23T08:17:41.486Z,-0.83
2019-01-23T08:18:41.511Z,-0.85
2019-01-23T08:19:42.029Z,-0.82
2019-01-23T08:20:41.784Z,-0.86
2019-01-23T08:21:41.796Z,-0.89
2019-01-23T08:22:41.810Z,-0.9
2019-01-23T08:23:42.093Z,-0.82
2019-01-23T08:24:41.847Z,-0.86
2019-01-23T08:25:41.588Z,-0.85
2019-01-23T08:26:41.870Z,-0.8
2019-01-23T08:27:41.882Z,-0.74
2019-01-23T08:28:41.701Z,-0.75
2019-01-23T08:29:42.176Z,-0.8
2019-01-23T08:30:43.843Z,-0.75
2019-01-23T08:31:41.936Z,-0.65
2019-01-23T08:32:42.200Z,-0.75
2019-01-23T08:33:41.706Z,-0.75
2019-01-23T08:34:41.989Z,-0.71
2019-01-23T08:35:42.266Z,-0.64
2019-01-23T08:36:41.993Z,-0.68
2019-01-23T08:37:41.755Z,-0.67
2019-01-23T08:38:42.023Z,-0.64
2019-01-23T08:39:42.288Z,-0.72
2019-01-23T08:40:42.304Z,-0.62
2019-01-23T08:41:42.078Z,-0.64
2019-01-23T08:42:42.337Z,-0.62
2019-01-23T08:43:42.354Z,-0.72
2019-01-23T08:44:42.359Z,-0.68
2019-01-23T08:45:42.398Z,-0.65
2019-01-23T08:46:42.127Z,-0.67
2019-01-23T08:47:42.152Z,-0.68
2019-01-23T08:48:42.154Z,-0.68
2019-01-23T08:49:41.918Z,-0.65
2019-01-23T08:50:42.189Z,-0.59
2019-01-23T08:51:42.214Z,-0.61
2019-01-23T08:52:41.956Z,-0.71
2019-01-23T08:53:42.226Z,-0.64
2019-01-23T08:54:42.499Z,-0.61
2019-01-23T08:55:42.252Z,-0.62
2019-01-23T08:56:42.259Z,-0.64
2019-01-23T08:57:42.013Z,-0.67
2019-01-23T08:58:42.285Z,-0.64
2019-01-23T08:59:42.048Z,-0.64
2019-01-23T09:00:48.400Z,-0.62
2019-01-23T09:01:42.064Z,-0.67
2019-01-23T09:02:42.606Z,-0.59
2019-01-23T09:03:42.366Z,-0.65
2019-01-23T09:04:42.374Z,-0.62
2019-01-23T09:05:42.135Z,-0.64
2019-01-23T09:06:42.392Z,-0.62
2019-01-23T09:07:42.687Z,-0.61
2019-01-23T09:08:42.305Z,-0.57
2019-01-23T09:09:42.174Z,-0.61
2019-01-23T09:10:42.701Z,-0.57
2019-01-23T09:11:42.467Z,-0.57
2019-01-23T09:12:42.479Z,-0.57
2019-01-23T09:13:42.750Z,-0.61
2019-01-23T09:14:42.251Z,-0.49
2019-01-23T09:15:42.781Z,-0.57
2019-01-23T09:16:42.522Z,-0.56
2019-01-23T09:17:42.536Z,-0.61
2019-01-23T09:18:42.556Z,-0.52
2019-01-23T09:19:42.306Z,-0.53
2019-01-23T09:20:42.586Z,-0.52
2019-01-23T09:21:42.341Z,-0.54
2019-01-23T09:22:42.353Z,-0.56
2019-01-23T09:23:42.420Z,-0.56
2019-01-23T09:24:42.685Z,-0.54
2019-01-23T09:25:42.395Z,-0.47
2019-01-23T09:26:42.674Z,-0.47
2019-01-23T09:27:42.673Z,-0.46
2019-01-23T09:28:42.428Z,-0.41
2019-01-23T09:29:42.446Z,-0.53
2019-01-23T09:30:42.462Z,-0.43
2019-01-23T09:31:42.468Z,-0.47
2019-01-23T09:32:42.756Z,-0.43
2019-01-23T09:33:42.754Z,-0.49
2019-01-23T09:34:43.019Z,-0.41
2019-01-23T09:35:43.057Z,-0.36
2019-01-23T09:36:42.785Z,-0.41
2019-01-23T09:37:42.856Z,-0.28
2019-01-23T09:38:42.824Z,-0.29
2019-01-23T09:39:42.567Z,-0.23
2019-01-23T09:40:42.592Z,-0.25
2019-01-23T09:41:42.603Z,-0.13
2019-01-23T09:42:42.874Z,-0.25
2019-01-23T09:43:42.679Z,-0.2
2019-01-23T09:44:42.636Z,-0.14
2019-01-23T09:45:42.912Z,-0.15
2019-01-23T09:46:42.916Z,-0.15
2019-01-23T09:47:42.955Z,-0.17
2019-01-23T09:48:42.688Z,-0.15
2019-01-23T09:49:42.699Z,-0.15
2019-01-23T09:50:43.240Z,-0.1
2019-01-23T09:51:43.240Z,-0.17
2019-01-23T09:52:43.012Z,-0.18
2019-01-23T09:53:42.866Z,-0.17
2019-01-23T09:54:43.042Z,-0.1
2019-01-23T09:55:42.791Z,-0.06
2019-01-23T09:56:43.307Z,-0.15
2019-01-23T09:57:43.075Z,-0.1
2019-01-23T09:58:43.356Z,-0.08
2019-01-23T09:59:43.125Z,-0.1
2019-01-23T10:00:42.893Z,-0.03
2019-01-23T10:01:43.123Z,0.03
2019-01-23T10:02:43.401Z,0.01
2019-01-23T10:03:42.885Z,-0.03
2019-01-23T10:04:43.154Z,0.01
2019-01-23T10:05:42.914Z,0.07
2019-01-23T10:06:42.929Z,0.1
2019-01-23T10:07:43.233Z,0.05
2019-01-23T10:08:42.969Z,0.07
2019-01-23T10:09:42.974Z,0.07
2019-01-23T10:10:42.980Z,0.1
2019-01-23T10:11:42.996Z,0.07
2019-01-23T10:12:43.011Z,0.01
2019-01-23T10:13:43.537Z,0.11
2019-01-23T10:14:43.437Z,0.1
2019-01-23T10:15:43.309Z,0.12
2019-01-23T10:16:43.330Z,0.19
2019-01-23T10:17:43.080Z,0.16
2019-01-23T10:18:43.613Z,0.15
2019-01-23T10:19:43.102Z,0.23
2019-01-23T10:20:43.386Z,0.28
2019-01-23T10:21:43.643Z,0.31
2019-01-23T10:22:43.672Z,0.29
2019-01-23T10:23:43.151Z,0.22
2019-01-23T10:24:43.437Z,0.34
2019-01-23T10:25:43.187Z,0.36
2019-01-23T10:26:43.447Z,0.44
2019-01-23T10:27:43.471Z,0.39
2019-01-23T10:28:43.224Z,0.47
2019-01-23T10:29:43.780Z,0.58
2019-01-23T10:30:43.249Z,0.52
2019-01-23T10:31:43.262Z,0.59
2019-01-23T10:32:43.534Z,0.55
2019-01-23T10:33:43.543Z,0.73
2019-01-23T10:34:43.559Z,0.62
2019-01-23T10:35:43.840Z,0.66
2019-01-23T10:36:43.344Z,0.62
2019-01-23T10:37:43.597Z,0.6
2019-01-23T10:38:43.617Z,0.69
2019-01-23T10:39:43.631Z,0.63
2019-01-23T10:40:43.699Z,0.69
2019-01-23T10:41:43.661Z,0.66
2019-01-23T10:42:43.948Z,0.74
2019-01-23T10:43:43.954Z,0.66
2019-01-23T10:44:43.698Z,0.7
2019-01-23T10:45:43.707Z,0.68
2019-01-23T10:46:43.472Z,0.7
2019-01-23T10:47:43.747Z,0.69
2019-01-23T10:48:43.744Z,0.69
2019-01-23T10:49:43.770Z,0.73
2019-01-23T10:50:44.027Z,0.76
2019-01-23T10:51:43.794Z,0.69
2019-01-23T10:52:44.107Z,0.77
2019-01-23T10:53:43.553Z,0.81
2019-01-23T10:54:43.837Z,0.81
2019-01-23T10:55:43.848Z,0.84
2019-01-23T10:56:43.853Z,0.84
2019-01-23T10:57:43.877Z,0.84
2019-01-23T10:58:43.890Z,0.83
2019-01-23T10:59:43.638Z,0.81
2019-01-23T11:00:43.915Z,0.78
2019-01-23T11:01:44.196Z,0.73
2019-01-23T11:02:44.202Z,0.81
2019-01-23T11:03:43.951Z,0.78
2019-01-23T11:04:43.999Z,0.74
2019-01-23T11:05:43.987Z,0.83
2019-01-23T11:06:43.992Z,0.73
2019-01-23T11:07:43.999Z,0.69
2019-01-23T11:08:43.763Z,0.77
2019-01-23T11:09:43.772Z,0.68
2019-01-23T11:10:43.796Z,0.87
2019-01-23T11:11:43.797Z,0.77
2019-01-23T11:12:44.068Z,0.78
2019-01-23T11:13:44.101Z,0.73
2019-01-23T11:14:43.849Z,0.74
2019-01-23T11:15:43.852Z,0.73
2019-01-23T11:16:44.122Z,0.73
2019-01-23T11:17:44.135Z,0.76
2019-01-23T11:18:44.149Z,0.81
2019-01-23T11:19:44.168Z,0.73
2019-01-23T11:20:44.175Z,0.77
2019-01-23T11:21:44.194Z,0.77
2019-01-23T11:22:44.227Z,0.8
2019-01-23T11:23:44.218Z,0.8
2019-01-23T11:24:43.980Z,0.83
2019-01-23T11:25:44.285Z,0.84
2019-01-23T11:26:44.271Z,0.88
2019-01-23T11:27:44.276Z,0.83
2019-01-23T11:28:44.292Z,0.98
2019-01-23T11:29:44.575Z,0.88
2019-01-23T11:30:44.058Z,0.88
2019-01-23T11:31:44.075Z,0.92
2019-01-23T11:32:44.342Z,0.95
2019-01-23T11:33:44.620Z,1.06
2019-01-23T11:34:44.366Z,1.05
2019-01-23T11:35:44.390Z,1.04
2019-01-23T11:36:44.138Z,1.05
2019-01-23T11:37:44.419Z,1.14
2019-01-23T11:38:44.171Z,1.12
2019-01-23T11:39:44.433Z,1.14
2019-01-23T11:40:44.516Z,1.08
2019-01-23T11:41:44.478Z,1.12
2019-01-23T11:42:44.485Z,1.14
2019-01-23T11:43:44.490Z,1.06
2019-01-23T11:44:44.522Z,1.16
2019-01-23T11:45:44.270Z,1.16
2019-01-23T11:46:44.822Z,1.19
2019-01-23T11:47:44.554Z,1.19
2019-01-23T11:48:44.312Z,1.16
2019-01-23T11:49:44.317Z,1.17
2019-01-23T11:50:44.596Z,1.22
2019-01-23T11:51:44.854Z,1.13
2019-01-23T11:52:44.357Z,1.12
2019-01-23T11:53:44.642Z,1.16
2019-01-23T11:54:44.640Z,1.24
2019-01-23T11:55:44.656Z,1.19
2019-01-23T11:56:44.416Z,1.1
2019-01-23T11:57:44.434Z,1.19
2019-01-23T11:58:44.747Z,1.19
2019-01-23T11:59:44.718Z,1.13
2019-01-23T12:00:44.786Z,1.14
2019-01-23T12:01:44.738Z,1.16
2019-01-23T12:02:44.495Z,1.19
2019-01-23T12:03:44.761Z,1.17
2019-01-23T12:04:44.521Z,1.13
2019-01-23T12:05:44.537Z,1.1
2019-01-23T12:06:44.817Z,1.1
2019-01-23T12:07:44.818Z,1.13
2019-01-23T12:08:44.580Z,1.1
2019-01-23T12:09:44.842Z,1.12
2019-01-23T12:10:44.885Z,1.13
2019-01-23T12:11:44.875Z,1.14
2019-01-23T12:12:44.627Z,1.16
2019-01-23T12:13:45.178Z,1.16
2019-01-23T12:14:44.685Z,1.12
2019-01-23T12:15:45.915Z,1.13
2019-01-23T12:16:44.685Z,1.14
2019-01-23T12:17:44.719Z,1.1
2019-01-23T12:18:45.239Z,1.06
2019-01-23T12:19:45.001Z,1.13
2019-01-23T12:20:44.753Z,1.1
2019-01-23T12:21:44.751Z,1.05
2019-01-23T12:22:45.035Z,1.08
2019-01-23T12:23:45.052Z,1.13
2019-01-23T12:24:44.799Z,1.08
2019-01-23T12:25:45.338Z,1.08
2019-01-23T12:26:44.819Z,1.05
2019-01-23T12:27:45.097Z,0.99
2019-01-23T12:28:45.116Z,1.13
2019-01-23T12:29:45.376Z,1.16
2019-01-23T12:30:45.153Z,1.05
2019-01-23T12:31:44.891Z,1.08
2019-01-23T12:32:45.175Z,1.14
2019-01-23T12:33:45.446Z,1.12
2019-01-23T12:34:44.937Z,1.06
2019-01-23T12:35:45.214Z,0.98
2019-01-23T12:36:45.220Z,1.08
2019-01-23T12:37:45.498Z,1.1
2019-01-23T12:38:45.525Z,1.08
2019-01-23T12:39:45.005Z,1.12
2019-01-23T12:40:45.533Z,1.13
2019-01-23T12:41:45.542Z,1.08
2019-01-23T12:42:45.318Z,1.13
2019-01-23T12:43:45.055Z,1.16
2019-01-23T12:44:45.321Z,1.17
2019-01-23T12:45:45.601Z,1.16
2019-01-23T12:46:45.614Z,1.14
2019-01-23T12:47:45.369Z,1.16
2019-01-23T12:48:45.135Z,1.14
2019-01-23T12:49:45.137Z,1.12
2019-01-23T12:50:45.411Z,1.17
2019-01-23T12:51:45.167Z,1.17
2019-01-23T12:52:45.449Z,1.22
2019-01-23T12:53:45.457Z,1.14
2019-01-23T12:54:45.462Z,1.19
2019-01-23T12:55:45.224Z,1.24
2019-01-23T12:56:45.242Z,1.12
2019-01-23T12:57:45.502Z,1.12
2019-01-23T12:58:45.517Z,1.16
2019-01-23T12:59:45.796Z,1.19
2019-01-23T13:00:45.558Z,1.13